Masset Airport

Airport
ICAO code: 
CZMT
IATA Code: 
ZMT
Summary
ICAO Region: 
NAM
Territory: 
Location: 
Masset, British Columbia
Serving: 
Masset
Elevation: 
26 ft
Coordinates: 
Aerial View: 
54° 1' 35.439" N, 132° 7' 28.304" W
Metar
Observation
CZMT 272100Z 18013G18KT 15SM SCT020 09/08 A2931 RMK CU4 SLP926 DENSITY ALT 100FT
Station
MASSET
Date/Time
2021-11-27 21:00:00
Wind direction
180°
Wind speed
13 kts
Lowest cloud amount
scattered clouds
Temperature
9°C
Dew point
8°C
Humidity
93%
Weather condition
n/a

Masset Airport is located 1.5 nm northeast of Masset, British Columbia, Canada.

Climatology

Temperate Marine climate/Oceanic climate (Köppen climate classification Cfb). Moderately cool summer and comparatively warm winter.

Runways

Designator Length Width Surface Rops
13/31 1524 30 ASP Yes/Yes
Airport map: 
Aerial View: 

Accidents and Serious Incidents at or in the vicinity of CZMT

SKYbrary Partners:

Safety knowledge contributed by: